Flight Track Log - Related Links

Times and Time Zones

All times are in EST time to prevent confusion due to time zone crossing. See the TAM3227 flight status page for this flight to view local times or setup timezone preferences in your user account.

Time Position Orientation Groundspeed Altitude Reporting Facility
EST Latitude Longitude Course Direction KTS MPH feet Rate Location/Type
Thu 04:28:00 AM -17.7208 -48.1040 North  Level Estimated
Thu 04:29:00 AM -17.6627 -48.0979 North  Level Estimated
Thu 04:30:00 AM -17.6046 -48.0919 North  Level Estimated
Thu 04:31:00 AM -17.5465 -48.0858 North  Level Estimated
Thu 04:32:00 AM -17.4884 -48.0798 North  Level Estimated
Thu 04:33:00 AM -17.4303 -48.0738 North  Level Estimated
Thu 04:34:00 AM -17.3722 -48.0678 North  Level Estimated
Thu 04:35:00 AM -17.3141 -48.0618 North  Level Estimated
Thu 04:36:00 AM -17.2560 -48.0558 North  Level Estimated
Thu 04:37:00 AM -17.1979 -48.0497 North  Level Estimated
Thu 04:38:00 AM -17.1398 -48.0437 North  Level Estimated
Thu 04:39:00 AM -17.0817 -48.0377 North  Level Estimated
Thu 04:40:00 AM -17.0236 -48.0317 North  Level Estimated
Thu 04:41:00 AM -16.9655 -48.0257 North  Level Estimated
Thu 04:42:00 AM -16.9074 -48.0198 North  Level Estimated
Thu 04:43:00 AM -16.8493 -48.0138 North  Level Estimated
Thu 04:44:00 AM -16.7912 -48.0078 North  Level Estimated
Thu 04:45:00 AM -16.7331 -48.0018 North  Level Estimated
Thu 04:46:00 AM -16.6750 -47.9958 North  Level Estimated
Thu 04:47:00 AM -16.6169 -47.9899 North  Level Estimated
Thu 04:48:00 AM -16.5588 -47.9839 North  Level Estimated
Thu 04:49:00 AM -16.5007 -47.9779 North  Level Estimated
Thu 04:50:00 AM -16.4426 -47.9720 North  Level Estimated
Thu 04:51:00 AM -16.3844 -47.9660 North  Level Estimated
Thu 04:52:00 AM -16.3263 -47.9601 North  Level Estimated
Thu 04:53:00 AM -16.2682 -47.9541 North  Level Estimated
Thu 04:54:00 AM -16.2101 -47.9482 North  Level Estimated
Thu 04:55:00 AM -16.1520 -47.9422 North  Level Estimated
Thu 04:56:00 AM -16.0939 -47.9363 North  Level Estimated
Thu 04:57:00 AM -16.0358 -47.9303 North  Level Estimated
Thu 04:58:00 AM -15.9777 -47.9244 North  Level Estimated
Thu 04:59:00 AM -15.9196 -47.9185 North  Level Estimated
Thu 05:00:00 AM -15.8626 -47.9127 North  Level Estimated
Thu 05:01:00 AM -15.8626 -47.9127 128° Southeast  Level Estimated
Thu 05:02:00 AM -15.8626 -47.9127 128° Southeast  Level Estimated
Thu 05:03:00 AM -15.8626 -47.9127 128° Southeast  Level Estimated
Thu 05:04:00 AM -15.8626 -47.9127 128° Southeast  Level Estimated
Thu 05:05:00 AM -15.8626 -47.9127 128° Southeast  Level Estimated
Thu 05:06:00 AM -15.8626 -47.9127 128° Southeast  Level Estimated
Thu 05:07:00 AM -15.8626 -47.9127 128° Southeast  Level Estimated
Thu 05:08:00 AM -15.8626 -47.9127 128° Southeast  Level Estimated
Thu 05:09:00 AM -15.8626 -47.9127 128° Southeast  Level Estimated
Thu 05:10:00 AM -15.8626 -47.9127 128° Southeast  Level Estimated
Thu 05:11:00 AM -15.8626 -47.9127 128° Southeast  Level Estimated
Thu 05:12:00 AM -15.8626 -47.9127 128° Southeast  Level Estimated
Thu 05:13:00 AM -15.8626 -47.9127 128° Southeast  Level Estimated
Thu 05:14:00 AM -15.8626 -47.9127 128° Southeast  Level Estimated
Thu 05:15:00 AM -15.8626 -47.9127 128° Southeast  Level Estimated
Thu 05:16:00 AM -15.8626 -47.9127 128° Southeast  Level Estimated

Login

Don't have an account? Register now (free) for customized features, flight alerts, and more!